Česky Dansk Deutsch English Español Suomi Français Magyar Italiano Nederlands norsk Polski Português svenska Türkçe

 

Het Weer

Twenthe (Nederland)

12:25, 7 april 2008 (GMT)

NWNNE
WE
SWSSE
Home            
Twenthe Nordhorn Rheine-Bentlage Hopsten Muenster / Osnabrueck Meppen-Mil Deelen Kalkar Laarbruch Niederrhein Lelystad Essen Dortmund / Wickede Groningen Airport Eelde Guetersloh Diepholz Volkel Duesseldorf Soesterberg Monchengladbach De Bilt Brueggen Leeuwarden

Om een weerknop op uw website of weblog te plaatsen, copieer onderstaande code en plak die in uw pagina. In het eerste vakje staat HTML-code, in het tweede vakje UBB-code.


Add to Google

Details

Wind speed:2 bf, 6 kn, 3.1 m/s, 6.9 miles/h, 11.1 km/h
Wind direction:N, 010°
Clouds:Durchbrochene Bewölkung at 20000 ft, 6096 m
Het Weer:moderate
moderate
Temperature:8°C, 46°F
Dew-point:-4°C, 25°F
Atmospheric pressure:1002 hPa, 751.6 mmHg, 29.59 inHg, 0.989 atm
Relative humidity:42.3 %
METAR:EHTW 071225Z AUTO 01006KT BKN200 08/M04 Q1002 RE

Snelkoppelingen

Actuele weersinformatie van de hele wereld. Voeg locaties toe met het plus (+) symbool. Deze snelkoppelingen kunnen worden toegevoegd aan Google.

Lid van de Technetium groep

website free tracking
StatCounter NetStat W3C Validator

24-10-2020 02:46:32
astro.technetium.be money.technetium.be phote.technetium.be tafeltennistafel.technetium.be www.ligfiets.net